Time;durP1;ratioP1;P1;durP2;ratioP2;P2;SDS_P1;SDS_P2;PMS_P1;PMS_P2;Temp;Humidity;BMP_temperature;BMP_pressure;BME280_temperature;BME280_humidity;BME280_pressure;Samples;Min_cycle;Max_cycle;Signal;HPM_P1;HPM_P2
2022/03/22 00:00:28;;;;;;;35.40;10.73;;;;;;;;;;4956578;29;20551;-64
2022/03/22 00:02:54;;;;;;;14.35;8.93;;;;;;;;;;4949212;29;20035;-64
2022/03/22 00:05:20;;;;;;;16.73;9.52;;;;;;;;;;4957149;29;20024;-64
2022/03/22 00:07:46;;;;;;;16.67;9.55;;;;;;;;;;4957142;29;20031;-65
2022/03/22 00:10:12;;;;;;;16.98;9.43;;;;;;;;;;4956555;29;20024;-64
2022/03/22 00:12:38;;;;;;;16.98;8.70;;;;;;;;;;4956897;29;20027;-65
2022/03/22 00:15:05;;;;;;;17.70;9.48;;;;;;;;;;4956951;29;20423;-64
2022/03/22 00:17:31;;;;;;;35.13;10.02;;;;;;;;;;4955045;28;20078;-64
2022/03/22 00:19:57;;;;;;;18.58;9.88;;;;;;;;;;4956918;29;20074;-64
2022/03/22 00:22:24;;;;;;;28.30;8.45;;;;;;;;;;4956718;29;20497;-65
2022/03/22 00:24:51;;;;;;;16.25;9.07;;;;;;;;;;4949491;28;20420;-64
2022/03/22 00:27:17;;;;;;;13.00;8.68;;;;;;;;;;4936502;29;20035;-66
2022/03/22 00:29:43;;;;;;;13.70;8.55;;;;;;;;;;4937605;29;20086;-65
2022/03/22 00:32:08;;;;;;;14.60;8.45;;;;;;;;;;4937262;29;20082;-65
2022/03/22 00:34:44;;;;;;;18.33;8.80;;;;;;;;;;4953305;29;20038;-65
2022/03/22 00:37:10;;;;;;;12.27;8.02;;;;;;;;;;4944250;28;20071;-66
2022/03/22 00:39:36;;;;;;;18.17;8.43;;;;;;;;;;4937668;29;20019;-64
2022/03/22 00:42:02;;;;;;;12.57;7.93;;;;;;;;;;4937296;29;20055;-65
2022/03/22 00:44:28;;;;;;;14.60;8.63;;;;;;;;;;4937764;29;20035;-65
2022/03/22 00:46:55;;;;;;;22.45;8.45;;;;;;;;;;4936245;29;20060;-66
2022/03/22 00:49:21;;;;;;;12.02;8.07;;;;;;;;;;4944807;29;20463;-65
2022/03/22 00:51:47;;;;;;;12.38;8.25;;;;;;;;;;4956541;29;20054;-65
2022/03/22 00:54:13;;;;;;;13.27;7.97;;;;;;;;;;4956529;29;20451;-65
2022/03/22 00:56:41;;;;;;;12.60;7.85;;;;;;;;;;4956350;29;20039;-67
2022/03/22 01:01:52;;;;;;;15.93;7.72;;;;;;;;;;4956606;29;20121;-65
2022/03/22 01:04:18;;;;;;;14.88;8.30;;;;;;;;;;4956431;29;20463;-65
2022/03/22 01:06:44;;;;;;;10.90;7.63;;;;;;;;;;4955195;28;20027;-65
2022/03/22 01:09:10;;;;;;;13.40;7.63;;;;;;;;;;4955407;28;20035;-64
2022/03/22 01:11:37;;;;;;;13.80;7.72;;;;;;;;;;4955948;28;20081;-64
2022/03/22 01:14:02;;;;;;;11.98;7.93;;;;;;;;;;4956516;29;20031;-66
2022/03/22 01:16:28;;;;;;;14.55;8.02;;;;;;;;;;4954568;28;20062;-65
2022/03/22 01:18:54;;;;;;;18.70;7.45;;;;;;;;;;4956042;29;20031;-64
2022/03/22 01:21:20;;;;;;;11.27;7.32;;;;;;;;;;4954960;28;20042;-65
2022/03/22 01:23:46;;;;;;;13.43;8.18;;;;;;;;;;4956329;29;20106;-65
2022/03/22 01:26:13;;;;;;;12.27;7.55;;;;;;;;;;4956052;29;20126;-67
2022/03/22 01:28:39;;;;;;;11.43;7.35;;;;;;;;;;4955987;28;20470;-64
2022/03/22 01:31:05;;;;;;;11.02;7.38;;;;;;;;;;4955796;29;20023;-65
2022/03/22 01:33:31;;;;;;;14.75;8.45;;;;;;;;;;4955765;29;20042;-65
2022/03/22 01:35:57;;;;;;;12.25;7.38;;;;;;;;;;4952534;28;20040;-65
2022/03/22 01:38:23;;;;;;;15.20;7.40;;;;;;;;;;4936581;29;20027;-64
2022/03/22 01:40:49;;;;;;;10.05;7.28;;;;;;;;;;4936375;29;20036;-64
2022/03/22 01:43:15;;;;;;;9.18;7.05;;;;;;;;;;4936442;29;20027;-64
2022/03/22 01:45:41;;;;;;;12.40;7.43;;;;;;;;;;4936903;29;20099;-65
2022/03/22 01:48:08;;;;;;;13.35;7.65;;;;;;;;;;4935364;29;20050;-65
2022/03/22 01:50:37;;;;;;;12.52;7.72;;;;;;;;;;4938042;29;20059;-65
2022/03/22 01:53:03;;;;;;;10.38;7.22;;;;;;;;;;4955231;28;20142;-66
2022/03/22 01:55:29;;;;;;;11.88;7.63;;;;;;;;;;4955299;29;20106;-65
2022/03/22 01:57:56;;;;;;;14.02;7.97;;;;;;;;;;4955362;28;20070;-65
2022/03/22 02:00:22;;;;;;;11.13;7.25;;;;;;;;;;4955362;28;20122;-66
2022/03/22 02:05:55;;;;;;;14.85;7.45;;;;;;;;;;4955282;29;20518;-65
2022/03/22 02:08:24;;;;;;;15.75;7.63;;;;;;;;;;4954043;28;20243;-66
2022/03/22 02:10:50;;;;;;;8.55;6.85;;;;;;;;;;4954836;28;20026;-65
2022/03/22 02:13:16;;;;;;;12.55;7.43;;;;;;;;;;4955194;29;20039;-64
2022/03/22 02:15:43;;;;;;;14.40;7.80;;;;;;;;;;4955079;28;20117;-64
2022/03/22 02:18:09;;;;;;;24.50;8.63;;;;;;;;;;4955201;28;20052;-65
2022/03/22 02:20:36;;;;;;;26.50;8.90;;;;;;;;;;4954579;28;20156;-64
2022/03/22 02:23:06;;;;;;;16.05;8.48;;;;;;;;;;4939628;28;20035;-68
2022/03/22 02:25:36;;;;;;;19.50;8.40;;;;;;;;;;4949322;29;20031;-68
2022/03/22 02:28:05;;;;;;;12.88;8.10;;;;;;;;;;4955751;28;20061;-69
2022/03/22 02:30:32;;;;;;;16.98;8.15;;;;;;;;;;4954960;28;20364;-70
2022/03/22 02:33:00;;;;;;;13.38;6.88;;;;;;;;;;4954602;28;20027;-65
2022/03/22 02:35:26;;;;;;;16.67;8.40;;;;;;;;;;4954718;28;20059;-65
2022/03/22 02:37:52;;;;;;;14.50;8.43;;;;;;;;;;4953725;28;20027;-65
2022/03/22 02:40:19;;;;;;;11.05;7.47;;;;;;;;;;4954666;28;20471;-65
2022/03/22 02:42:54;;;;;;;16.58;9.25;;;;;;;;;;4954457;29;20046;-66
2022/03/22 02:45:20;;;;;;;12.45;7.82;;;;;;;;;;4954598;28;20333;-65
2022/03/22 02:47:46;;;;;;;9.93;7.85;;;;;;;;;;4954529;29;20023;-66
2022/03/22 02:50:13;;;;;;;11.18;7.40;;;;;;;;;;4954235;29;20031;-65
2022/03/22 02:52:39;;;;;;;11.15;8.27;;;;;;;;;;4954357;29;20082;-65
2022/03/22 02:55:06;;;;;;;13.50;7.70;;;;;;;;;;4953669;29;20027;-65
2022/03/22 02:57:32;;;;;;;12.27;8.35;;;;;;;;;;4954266;29;20047;-66
2022/03/22 02:59:58;;;;;;;11.55;8.27;;;;;;;;;;4954322;29;20027;-65
2022/03/22 03:02:24;;;;;;;13.00;8.38;;;;;;;;;;4969180;28;20019;-65
2022/03/22 03:04:50;;;;;;;19.63;8.88;;;;;;;;;;4954582;29;20082;-64
2022/03/22 03:07:16;;;;;;;14.85;8.02;;;;;;;;;;4954219;29;20415;-65
2022/03/22 03:09:42;;;;;;;14.18;8.65;;;;;;;;;;4953392;28;20027;-64
2022/03/22 03:12:09;;;;;;;10.15;7.80;;;;;;;;;;4953941;29;20035;-65
2022/03/22 03:14:43;;;;;;;11.18;7.95;;;;;;;;;;4969097;28;20057;-64
2022/03/22 03:17:13;;;;;;;11.20;8.05;;;;;;;;;;4968488;28;20059;-68
2022/03/22 03:19:40;;;;;;;12.75;8.50;;;;;;;;;;4953894;29;20019;-65
2022/03/22 03:22:06;;;;;;;9.55;7.55;;;;;;;;;;4954169;28;20054;-64
2022/03/22 03:24:33;;;;;;;11.95;8.82;;;;;;;;;;4953159;29;20054;-64
2022/03/22 03:26:59;;;;;;;11.75;7.68;;;;;;;;;;4953892;29;20072;-65
2022/03/22 03:29:26;;;;;;;13.55;8.93;;;;;;;;;;4953980;29;20039;-65
2022/03/22 03:31:52;;;;;;;11.27;7.78;;;;;;;;;;4968798;28;20431;-64
2022/03/22 03:34:18;;;;;;;13.43;8.95;;;;;;;;;;4956495;29;20050;-64
2022/03/22 03:36:45;;;;;;;14.55;8.77;;;;;;;;;;4957851;29;20070;-64
2022/03/22 03:39:11;;;;;;;11.18;9.15;;;;;;;;;;4957855;28;20028;-64
2022/03/22 03:47:07;;;;;;;14.10;8.60;;;;;;;;;;4958178;29;20074;-65
2022/03/22 03:49:40;;;;;;;10.82;7.97;;;;;;;;;;4957564;28;20038;-65
2022/03/22 03:52:07;;;;;;;14.90;8.43;;;;;;;;;;4956304;29;20082;-64
2022/03/22 03:54:34;;;;;;;15.43;8.95;;;;;;;;;;4957677;28;20024;-64
2022/03/22 03:57:00;;;;;;;11.27;9.02;;;;;;;;;;4956568;28;20066;-66
2022/03/22 03:59:26;;;;;;;16.35;9.25;;;;;;;;;;4957402;29;20482;-65
2022/03/22 04:01:53;;;;;;;13.95;9.43;;;;;;;;;;4957477;29;20034;-65
2022/03/22 04:04:19;;;;;;;12.75;8.65;;;;;;;;;;4957659;28;20086;-67
2022/03/22 04:06:45;;;;;;;11.70;8.82;;;;;;;;;;4972196;28;20031;-65
2022/03/22 04:09:11;;;;;;;14.00;9.13;;;;;;;;;;4956699;28;20032;-64
2022/03/22 04:11:38;;;;;;;10.57;8.55;;;;;;;;;;4957240;29;20042;-65
2022/03/22 04:14:04;;;;;;;14.73;9.30;;;;;;;;;;4956195;28;20610;-64
2022/03/22 04:16:30;;;;;;;13.75;8.93;;;;;;;;;;4956964;29;20122;-65
2022/03/22 04:18:56;;;;;;;13.20;9.00;;;;;;;;;;4957293;29;20107;-64
2022/03/22 04:21:22;;;;;;;12.55;8.68;;;;;;;;;;4957033;29;20408;-65
2022/03/22 04:23:49;;;;;;;13.48;9.05;;;;;;;;;;4971945;28;20083;-65
2022/03/22 04:26:15;;;;;;;12.88;8.88;;;;;;;;;;4957210;29;20027;-65
2022/03/22 04:34:10;;;;;;;15.15;9.75;;;;;;;;;;4957228;29;20037;-65
2022/03/22 04:36:36;;;;;;;14.52;9.32;;;;;;;;;;4956836;29;20062;-64
2022/03/22 04:39:02;;;;;;;21.05;10.13;;;;;;;;;;4957095;28;20039;-65
2022/03/22 04:41:29;;;;;;;12.43;9.15;;;;;;;;;;4956751;28;20032;-65
2022/03/22 04:43:55;;;;;;;14.00;9.35;;;;;;;;;;4955376;28;20024;-65
2022/03/22 04:46:20;;;;;;;13.05;9.93;;;;;;;;;;4956783;29;20035;-65
2022/03/22 04:48:46;;;;;;;16.25;9.52;;;;;;;;;;4956855;29;20431;-66
2022/03/22 04:56:48;;;;;;;19.70;9.27;;;;;;;;;;4956611;29;20537;-65
2022/03/22 04:59:19;;;;;;;13.27;9.48;;;;;;;;;;4956598;29;20023;-64
2022/03/22 05:01:45;;;;;;;15.52;8.50;;;;;;;;;;4955498;28;20114;-65
2022/03/22 05:04:12;;;;;;;13.02;8.98;;;;;;;;;;4956501;29;20045;-65
2022/03/22 05:06:38;;;;;;;13.27;9.90;;;;;;;;;;4954992;29;20049;-65
2022/03/22 05:09:07;;;;;;;12.65;9.13;;;;;;;;;;4955562;29;20023;-65
2022/03/22 05:11:34;;;;;;;12.48;9.85;;;;;;;;;;4956165;29;20038;-65
2022/03/22 05:14:00;;;;;;;13.40;9.40;;;;;;;;;;4956323;29;20116;-64
2022/03/22 05:16:26;;;;;;;16.90;10.30;;;;;;;;;;4955894;28;20499;-65
2022/03/22 05:18:54;;;;;;;11.70;9.10;;;;;;;;;;4956628;29;20027;-64
2022/03/22 05:21:20;;;;;;;15.13;10.20;;;;;;;;;;4954755;29;20033;-64
2022/03/22 05:23:46;;;;;;;16.27;9.45;;;;;;;;;;4956239;29;20023;-64
2022/03/22 05:26:13;;;;;;;13.85;9.20;;;;;;;;;;4937688;29;20075;-65
2022/03/22 05:28:39;;;;;;;12.45;9.27;;;;;;;;;;4936843;29;20028;-64
2022/03/22 05:31:06;;;;;;;15.73;8.68;;;;;;;;;;4936542;29;20039;-65
2022/03/22 05:33:33;;;;;;;11.80;8.98;;;;;;;;;;4948323;29;20451;-66
2022/03/22 05:35:58;;;;;;;14.43;10.02;;;;;;;;;;4952251;29;20019;-64
2022/03/22 05:38:28;;;;;;;16.75;10.82;;;;;;;;;;4936572;29;20039;-66
2022/03/22 05:40:54;;;;;;;15.13;9.98;;;;;;;;;;4935105;29;20023;-65
2022/03/22 05:43:20;;;;;;;13.10;10.00;;;;;;;;;;4936527;29;20023;-65
2022/03/22 05:45:49;;;;;;;13.20;9.95;;;;;;;;;;4935907;29;20475;-65
2022/03/22 05:48:19;;;;;;;13.98;9.82;;;;;;;;;;4935874;29;20027;-65
2022/03/22 05:50:45;;;;;;;12.63;9.85;;;;;;;;;;4935162;29;20027;-65
2022/03/22 05:53:11;;;;;;;15.05;10.40;;;;;;;;;;4935465;29;20479;-64
2022/03/22 05:55:38;;;;;;;14.52;10.50;;;;;;;;;;4934514;29;20032;-65
2022/03/22 05:58:04;;;;;;;13.52;9.30;;;;;;;;;;4937604;29;20027;-65
2022/03/22 06:00:31;;;;;;;18.08;10.13;;;;;;;;;;4951743;29;20065;-65
2022/03/22 06:02:56;;;;;;;14.18;9.85;;;;;;;;;;4949321;29;20035;-67
2022/03/22 06:05:22;;;;;;;13.68;9.60;;;;;;;;;;4945726;29;20423;-65
2022/03/22 06:07:48;;;;;;;12.02;9.65;;;;;;;;;;4940455;29;20050;-64
2022/03/22 06:10:14;;;;;;;12.98;10.10;;;;;;;;;;4942013;28;20028;-66
2022/03/22 06:12:41;;;;;;;16.20;10.85;;;;;;;;;;4935130;29;20503;-65
2022/03/22 06:15:15;;;;;;;14.10;10.55;;;;;;;;;;4935387;29;20098;-65
2022/03/22 06:17:49;;;;;;;13.57;10.98;;;;;;;;;;4939085;29;20043;-65
2022/03/22 06:20:15;;;;;;;14.40;10.75;;;;;;;;;;4950695;28;20069;-62
2022/03/22 06:22:41;;;;;;;41.20;14.73;;;;;;;;;;4951255;29;20019;-61
2022/03/22 06:25:08;;;;;;;48.70;13.45;;;;;;;;;;4944154;29;20373;-61
2022/03/22 06:27:35;;;;;;;50.47;13.02;;;;;;;;;;4942288;29;20083;-69
2022/03/22 06:30:09;;;;;;;47.85;13.45;;;;;;;;;;4942150;29;20019;-61
2022/03/22 06:32:42;;;;;;;54.58;14.30;;;;;;;;;;4938585;29;20039;-61
2022/03/22 06:35:10;;;;;;;34.78;13.98;;;;;;;;;;4934738;29;20113;-61
2022/03/22 06:37:36;;;;;;;33.72;13.75;;;;;;;;;;4950495;29;20043;-63
2022/03/22 06:40:02;;;;;;;29.48;13.45;;;;;;;;;;4953731;28;20139;-62
2022/03/22 06:42:28;;;;;;;30.42;13.95;;;;;;;;;;4946521;28;20046;-62
2022/03/22 06:44:54;;;;;;;45.25;13.50;;;;;;;;;;4937718;28;20115;-64
2022/03/22 06:47:20;;;;;;;30.45;13.63;;;;;;;;;;4934344;29;20058;-62
2022/03/22 06:49:46;;;;;;;36.60;13.90;;;;;;;;;;4941430;29;20023;-64
2022/03/22 06:52:12;;;;;;;22.40;13.60;;;;;;;;;;4945750;29;20046;-63
2022/03/22 06:54:38;;;;;;;32.28;13.40;;;;;;;;;;4953231;29;20086;-62
2022/03/22 06:57:05;;;;;;;27.00;12.55;;;;;;;;;;4953537;29;20078;-69
2022/03/22 06:59:31;;;;;;;26.80;13.88;;;;;;;;;;4954130;28;20031;-66
2022/03/22 07:01:57;;;;;;;26.88;13.55;;;;;;;;;;4953318;28;20363;-62
2022/03/22 07:04:23;;;;;;;21.38;12.52;;;;;;;;;;4953250;28;20031;-64
2022/03/22 07:06:49;;;;;;;23.42;13.02;;;;;;;;;;4945628;28;20051;-61
2022/03/22 07:09:15;;;;;;;30.10;13.73;;;;;;;;;;4939288;28;20151;-61
2022/03/22 07:11:50;;;;;;;22.05;13.52;;;;;;;;;;4932443;29;20444;-61
2022/03/22 07:14:19;;;;;;;27.02;13.25;;;;;;;;;;4932930;29;20447;-64
2022/03/22 07:16:48;;;;;;;27.63;13.80;;;;;;;;;;4933832;29;20392;-61
2022/03/22 07:19:15;;;;;;;27.15;13.85;;;;;;;;;;4934178;29;20024;-62
2022/03/22 07:21:42;;;;;;;23.15;13.40;;;;;;;;;;4934214;29;20038;-62
2022/03/22 07:24:08;;;;;;;20.52;13.90;;;;;;;;;;4935714;29;20063;-67
2022/03/22 07:26:34;;;;;;;29.65;13.40;;;;;;;;;;4941002;28;20035;-62
2022/03/22 07:29:01;;;;;;;28.73;13.60;;;;;;;;;;4943504;29;20027;-66
2022/03/22 07:31:27;;;;;;;21.90;13.60;;;;;;;;;;4945133;28;20023;-62
2022/03/22 07:33:52;;;;;;;23.10;13.70;;;;;;;;;;4948439;28;20810;-61
2022/03/22 07:36:18;;;;;;;24.58;13.93;;;;;;;;;;4945605;28;20039;-62
2022/03/22 07:38:44;;;;;;;24.48;12.90;;;;;;;;;;4946672;28;20043;-62
2022/03/22 07:41:12;;;;;;;18.13;12.55;;;;;;;;;;4954476;28;20034;-62
2022/03/22 07:43:38;;;;;;;21.02;13.10;;;;;;;;;;4943458;29;20031;-61
2022/03/22 07:46:05;;;;;;;21.90;13.00;;;;;;;;;;4942439;29;20028;-61
2022/03/22 07:48:31;;;;;;;22.20;12.38;;;;;;;;;;4941519;29;20024;-61
2022/03/22 07:53:44;;;;;;;19.67;13.20;;;;;;;;;;4944201;29;20043;-61
2022/03/22 07:56:11;;;;;;;18.45;12.18;;;;;;;;;;4941446;29;20027;-61
2022/03/22 07:58:37;;;;;;;20.95;12.60;;;;;;;;;;4943217;29;20046;-61
2022/03/22 08:01:03;;;;;;;23.90;13.30;;;;;;;;;;4941848;29;20031;-61
2022/03/22 08:03:29;;;;;;;21.10;12.75;;;;;;;;;;4944019;29;20467;-63
2022/03/22 08:05:55;;;;;;;18.35;11.82;;;;;;;;;;4941279;29;20032;-63
2022/03/22 08:08:21;;;;;;;19.17;13.07;;;;;;;;;;4947814;29;20031;-62
2022/03/22 08:10:48;;;;;;;20.42;13.00;;;;;;;;;;4945871;28;20039;-62
2022/03/22 08:13:14;;;;;;;17.38;11.77;;;;;;;;;;4947371;28;20028;-61
2022/03/22 08:15:40;;;;;;;17.73;12.45;;;;;;;;;;4939344;29;20039;-61
2022/03/22 08:18:07;;;;;;;19.73;12.00;;;;;;;;;;4943422;29;20510;-61
2022/03/22 08:20:33;;;;;;;16.70;12.13;;;;;;;;;;4943462;29;20059;-61
2022/03/22 08:23:02;;;;;;;19.58;12.30;;;;;;;;;;4951201;29;20031;-62
2022/03/22 08:25:28;;;;;;;16.95;11.77;;;;;;;;;;4949384;28;20118;-62
2022/03/22 08:27:55;;;;;;;21.40;12.07;;;;;;;;;;4942020;29;20054;-62
2022/03/22 08:30:22;;;;;;;17.30;12.50;;;;;;;;;;4948460;28;20399;-61
2022/03/22 08:32:49;;;;;;;18.10;12.15;;;;;;;;;;4950494;28;20016;-61
2022/03/22 08:35:15;;;;;;;14.38;11.60;;;;;;;;;;4949710;28;20043;-61
2022/03/22 08:37:41;;;;;;;16.85;11.75;;;;;;;;;;4950118;29;20039;-63
2022/03/22 08:40:07;;;;;;;18.92;12.52;;;;;;;;;;4945809;29;20038;-61
2022/03/22 08:42:33;;;;;;;16.85;12.10;;;;;;;;;;4943894;28;20030;-61
2022/03/22 08:44:59;;;;;;;19.98;12.60;;;;;;;;;;4947307;28;20178;-61
2022/03/22 08:47:26;;;;;;;17.50;12.43;;;;;;;;;;4945736;29;20055;-61
2022/03/22 08:49:52;;;;;;;16.67;11.50;;;;;;;;;;4946923;29;20082;-60
2022/03/22 08:52:18;;;;;;;17.58;11.95;;;;;;;;;;4946756;28;20024;-61
2022/03/22 08:54:45;;;;;;;17.95;12.30;;;;;;;;;;4946814;28;20502;-61
2022/03/22 08:57:11;;;;;;;18.48;11.70;;;;;;;;;;4946996;29;20102;-64
2022/03/22 08:59:37;;;;;;;18.65;11.02;;;;;;;;;;4944084;29;20019;-61
2022/03/22 09:02:03;;;;;;;23.45;11.95;;;;;;;;;;4947748;29;20479;-61
2022/03/22 09:07:14;;;;;;;15.73;11.43;;;;;;;;;;4947200;29;20038;-61
2022/03/22 09:09:40;;;;;;;19.80;11.82;;;;;;;;;;4945160;28;20107;-61
2022/03/22 09:12:06;;;;;;;18.17;11.25;;;;;;;;;;4947628;29;20027;-61
2022/03/22 09:14:32;;;;;;;21.50;10.95;;;;;;;;;;4947104;28;20019;-61
2022/03/22 09:16:58;;;;;;;15.60;11.18;;;;;;;;;;4944676;29;20075;-61
2022/03/22 09:19:24;;;;;;;16.63;10.43;;;;;;;;;;4945159;28;20042;-61
2022/03/22 09:21:50;;;;;;;21.88;10.93;;;;;;;;;;4944627;29;20027;-61
2022/03/22 09:24:16;;;;;;;17.77;10.43;;;;;;;;;;4945220;29;20867;-61
2022/03/22 09:26:42;;;;;;;15.05;10.20;;;;;;;;;;4945813;29;20122;-61
2022/03/22 09:29:08;;;;;;;15.30;9.70;;;;;;;;;;4948916;29;20098;-61
2022/03/22 09:31:34;;;;;;;15.95;9.27;;;;;;;;;;4955460;28;20348;-61
2022/03/22 09:34:01;;;;;;;14.80;9.95;;;;;;;;;;4951060;28;20031;-61
2022/03/22 09:36:27;;;;;;;19.65;10.00;;;;;;;;;;4941625;28;20505;-61
2022/03/22 09:38:52;;;;;;;16.60;9.90;;;;;;;;;;4947022;29;20024;-61
2022/03/22 09:41:19;;;;;;;14.40;9.15;;;;;;;;;;4946083;28;20034;-61
2022/03/22 09:43:47;;;;;;;18.05;9.05;;;;;;;;;;4950985;29;20031;-61
2022/03/22 09:46:14;;;;;;;16.90;9.00;;;;;;;;;;4952717;29;20027;-61
2022/03/22 09:48:40;;;;;;;12.90;8.77;;;;;;;;;;4955208;29;20479;-61
2022/03/22 09:52:07;;;;;;;15.90;8.55;;;;;;;;;;4949466;29;20031;-63
2022/03/22 09:54:03;;;;;;;21.10;9.30;;;;;;;;;;4945743;29;20035;-61
2022/03/22 09:56:32;;;;;;;15.43;8.73;;;;;;;;;;4950253;29;20135;-62
2022/03/22 09:58:59;;;;;;;24.52;8.55;;;;;;;;;;4952549;28;20368;-63
2022/03/22 10:01:25;;;;;;;19.45;7.95;;;;;;;;;;4947989;28;20523;-61
2022/03/22 10:03:58;;;;;;;19.65;9.25;;;;;;;;;;4936115;29;20042;-61
2022/03/22 10:06:24;;;;;;;18.90;9.00;;;;;;;;;;4947090;29;20023;-61
2022/03/22 10:08:50;;;;;;;19.40;8.60;;;;;;;;;;4944318;29;20035;-61
2022/03/22 10:11:17;;;;;;;15.15;8.63;;;;;;;;;;4941793;28;20046;-61
2022/03/22 10:13:50;;;;;;;17.80;9.13;;;;;;;;;;4943460;28;20048;-61
2022/03/22 10:16:16;;;;;;;22.33;8.27;;;;;;;;;;4945711;28;20663;-61
2022/03/22 10:18:42;;;;;;;18.98;8.68;;;;;;;;;;4944841;29;20102;-61
2022/03/22 10:21:08;;;;;;;25.15;8.13;;;;;;;;;;4943714;29;20051;-61
2022/03/22 10:23:47;;;;;;;25.10;7.82;;;;;;;;;;4942680;28;20039;-60
2022/03/22 10:26:13;;;;;;;29.33;8.27;;;;;;;;;;4946512;29;20090;-61
2022/03/22 10:28:48;;;;;;;29.17;8.65;;;;;;;;;;4943729;29;20023;-60
2022/03/22 10:31:16;;;;;;;17.95;7.35;;;;;;;;;;4939545;29;20147;-60
2022/03/22 10:33:52;;;;;;;18.85;7.70;;;;;;;;;;4943956;28;20028;-61
2022/03/22 10:36:21;;;;;;;19.65;7.60;;;;;;;;;;4943358;29;20036;-61
2022/03/22 10:38:54;;;;;;;18.48;8.00;;;;;;;;;;4944773;29;20033;-61
2022/03/22 10:41:24;;;;;;;21.65;8.55;;;;;;;;;;4942145;29;20023;-60
2022/03/22 10:44:00;;;;;;;16.65;8.85;;;;;;;;;;4934915;29;20177;-60
2022/03/22 10:46:27;;;;;;;13.30;8.18;;;;;;;;;;4950498;28;20043;-60
2022/03/22 10:49:00;;;;;;;14.30;7.30;;;;;;;;;;4942492;29;20062;-61
2022/03/22 10:51:26;;;;;;;;;;;;;;;;;;4949344;29;20487;-61
2022/03/22 10:53:52;;;;;;;17.83;7.97;;;;;;;;;;4944097;29;19913;-63
2022/03/22 10:56:18;;;;;;;14.38;8.00;;;;;;;;;;4944859;29;20053;-61
2022/03/22 10:58:44;;;;;;;14.98;8.90;;;;;;;;;;4938141;28;20130;-61
2022/03/22 11:01:14;;;;;;;17.90;9.02;;;;;;;;;;4946689;29;20031;-61
2022/03/22 11:03:42;;;;;;;19.90;8.82;;;;;;;;;;4939669;28;20042;-62
2022/03/22 11:06:08;;;;;;;21.02;8.25;;;;;;;;;;4950898;28;20015;-64
2022/03/22 11:08:34;;;;;;;19.23;8.70;;;;;;;;;;4947047;29;20033;-68
2022/03/22 11:11:00;;;;;;;18.02;8.77;;;;;;;;;;4940757;29;20018;-65
2022/03/22 11:13:27;;;;;;;18.50;9.05;;;;;;;;;;4946340;28;20023;-69
2022/03/22 11:15:55;;;;;;;20.23;8.30;;;;;;;;;;4941486;29;20134;-65
2022/03/22 11:18:22;;;;;;;18.88;9.43;;;;;;;;;;4935031;29;20047;-62
2022/03/22 11:20:48;;;;;;;16.25;9.15;;;;;;;;;;4935724;28;20475;-62
2022/03/22 11:23:18;;;;;;;14.77;8.98;;;;;;;;;;4948183;29;20049;-61
2022/03/22 11:25:44;;;;;;;15.20;9.07;;;;;;;;;;4947711;28;20040;-61
2022/03/22 11:28:11;;;;;;;16.88;8.90;;;;;;;;;;4942716;29;20766;-61
2022/03/22 11:30:39;;;;;;;18.25;9.48;;;;;;;;;;4944399;29;20027;-60
2022/03/22 11:35:59;;;;;;;17.23;10.25;;;;;;;;;;4948450;29;20126;-60
2022/03/22 11:38:40;;;;;;;16.58;9.55;;;;;;;;;;4936636;28;20048;-62
2022/03/22 11:44:04;;;;;;;13.98;9.50;;;;;;;;;;4945379;29;20039;-61
2022/03/22 11:46:33;;;;;;;16.75;9.50;;;;;;;;;;4943322;28;20486;-60
2022/03/22 11:49:10;;;;;;;16.42;9.35;;;;;;;;;;4944252;29;20392;-61
2022/03/22 11:51:45;;;;;;;16.08;9.45;;;;;;;;;;4934174;29;20036;-62
2022/03/22 11:54:11;;;;;;;15.77;9.60;;;;;;;;;;4940682;28;20134;-60
2022/03/22 11:56:45;;;;;;;14.70;9.18;;;;;;;;;;4945919;29;20162;-62
2022/03/22 11:59:15;;;;;;;18.17;10.18;;;;;;;;;;4939042;28;20035;-61
2022/03/22 12:01:41;;;;;;;15.82;10.05;;;;;;;;;;4937559;29;20107;-61
2022/03/22 12:04:16;;;;;;;15.93;9.50;;;;;;;;;;4938122;29;20024;-73
2022/03/22 12:06:43;;;;;;;14.48;10.07;;;;;;;;;;4938464;29;20439;-68
2022/03/22 12:09:09;;;;;;;15.02;10.23;;;;;;;;;;4941069;28;20122;-66
2022/03/22 12:11:36;;;;;;;16.00;9.77;;;;;;;;;;4953627;29;20098;-66
2022/03/22 12:14:03;;;;;;;15.18;9.15;;;;;;;;;;4955219;29;20023;-65
2022/03/22 12:16:29;;;;;;;16.08;10.13;;;;;;;;;;4956509;28;20035;-65
2022/03/22 12:18:58;;;;;;;16.77;10.20;;;;;;;;;;4956960;29;20027;-65
2022/03/22 12:21:24;;;;;;;13.88;10.23;;;;;;;;;;4957027;28;20031;-67
2022/03/22 12:23:50;;;;;;;16.52;10.27;;;;;;;;;;4957182;29;20030;-65
2022/03/22 12:26:16;;;;;;;14.55;9.88;;;;;;;;;;4956626;29;20027;-65
2022/03/22 12:28:53;;;;;;;15.75;9.98;;;;;;;;;;4955800;29;20023;-65
2022/03/22 12:31:21;;;;;;;15.48;9.93;;;;;;;;;;4956994;28;20038;-64
2022/03/22 12:34:07;;;;;;;16.25;10.48;;;;;;;;;;4957036;28;20095;-65
2022/03/22 12:36:33;;;;;;;17.65;10.30;;;;;;;;;;4956759;29;20082;-68
2022/03/22 12:38:59;;;;;;;15.63;9.93;;;;;;;;;;4955783;28;20027;-65
2022/03/22 12:41:25;;;;;;;14.63;9.88;;;;;;;;;;4956880;29;20378;-66
2022/03/22 12:43:51;;;;;;;15.23;9.18;;;;;;;;;;4956297;28;20027;-64
2022/03/22 12:46:18;;;;;;;16.40;10.13;;;;;;;;;;4974381;28;20035;-65
2022/03/22 12:48:44;;;;;;;14.88;9.90;;;;;;;;;;4957313;28;20023;-67
2022/03/22 12:51:10;;;;;;;19.02;9.35;;;;;;;;;;4956898;29;20031;-66
2022/03/22 12:53:37;;;;;;;15.05;9.40;;;;;;;;;;4957058;28;20082;-65
2022/03/22 12:56:12;;;;;;;12.93;9.75;;;;;;;;;;4956796;28;20475;-66
2022/03/22 12:58:39;;;;;;;16.67;9.55;;;;;;;;;;4956704;29;20062;-72
2022/03/22 13:01:05;;;;;;;17.45;10.18;;;;;;;;;;4956552;29;20074;-65
2022/03/22 13:03:31;;;;;;;17.70;9.90;;;;;;;;;;4936948;29;20031;-66
2022/03/22 13:05:57;;;;;;;14.63;9.65;;;;;;;;;;4936973;29;20034;-69
2022/03/22 13:08:27;;;;;;;16.02;9.73;;;;;;;;;;4939016;29;20042;-70
2022/03/22 13:16:24;;;;;;;22.52;10.43;;;;;;;;;;4955478;29;20113;-65
2022/03/22 13:18:52;;;;;;;16.35;10.40;;;;;;;;;;4956253;29;20039;-69
2022/03/22 13:21:22;;;;;;;19.05;10.95;;;;;;;;;;4956387;28;20019;-65
2022/03/22 13:23:58;;;;;;;16.17;9.65;;;;;;;;;;4956346;29;20494;-65
2022/03/22 13:26:24;;;;;;;14.57;10.05;;;;;;;;;;4956572;29;20122;-66
2022/03/22 13:28:50;;;;;;;17.92;10.10;;;;;;;;;;4955426;29;20123;-65
2022/03/22 13:31:25;;;;;;;17.00;10.07;;;;;;;;;;4955757;29;20058;-68
2022/03/22 13:33:55;;;;;;;20.50;9.90;;;;;;;;;;4955914;28;20019;-67
2022/03/22 13:36:22;;;;;;;18.05;9.38;;;;;;;;;;4949520;28;20159;-70
2022/03/22 13:38:52;;;;;;;13.90;9.85;;;;;;;;;;4936842;29;20778;-65
2022/03/22 13:41:28;;;;;;;18.17;10.25;;;;;;;;;;4936616;29;20024;-66
2022/03/22 13:43:54;;;;;;;13.23;9.27;;;;;;;;;;4936711;29;20035;-67
2022/03/22 13:46:20;;;;;;;15.55;9.70;;;;;;;;;;4946743;29;20027;-66
2022/03/22 13:48:51;;;;;;;17.13;8.93;;;;;;;;;;4970671;28;20023;-66
2022/03/22 13:51:18;;;;;;;19.23;9.98;;;;;;;;;;4955423;29;20035;-66
2022/03/22 13:53:46;;;;;;;15.18;9.23;;;;;;;;;;4955528;29;20057;-66
2022/03/22 13:56:13;;;;;;;14.55;9.65;;;;;;;;;;4955483;28;20150;-66
2022/03/22 13:58:40;;;;;;;20.77;9.80;;;;;;;;;;4955593;28;20063;-66
2022/03/22 14:01:07;;;;;;;17.08;9.82;;;;;;;;;;4955379;29;20027;-66
2022/03/22 14:03:33;;;;;;;17.85;10.05;;;;;;;;;;4955372;29;20082;-66
2022/03/22 14:05:59;;;;;;;14.63;9.27;;;;;;;;;;4955381;28;20482;-72
2022/03/22 14:08:25;;;;;;;20.63;8.95;;;;;;;;;;4955243;28;20043;-66
2022/03/22 14:10:54;;;;;;;20.48;9.50;;;;;;;;;;4969764;28;20031;-67
2022/03/22 14:13:21;;;;;;;15.27;8.95;;;;;;;;;;4955158;28;20034;-69
2022/03/22 14:15:47;;;;;;;16.83;9.05;;;;;;;;;;4970439;28;20054;-67
2022/03/22 14:18:14;;;;;;;14.27;9.05;;;;;;;;;;4954508;28;20431;-68
2022/03/22 14:20:40;;;;;;;14.95;9.02;;;;;;;;;;4955216;28;20378;-70
2022/03/22 14:23:07;;;;;;;16.35;9.13;;;;;;;;;;4955200;29;20144;-67
2022/03/22 14:25:34;;;;;;;15.50;9.05;;;;;;;;;;4953782;29;20062;-67
2022/03/22 14:28:00;;;;;;;14.57;8.93;;;;;;;;;;4955388;28;20031;-67
2022/03/22 14:30:27;;;;;;;12.70;8.85;;;;;;;;;;4955624;29;20114;-68
2022/03/22 14:32:54;;;;;;;14.77;8.60;;;;;;;;;;4955005;28;20509;-67
2022/03/22 14:38:06;;;;;;;14.60;8.73;;;;;;;;;;4948386;28;20045;-72
2022/03/22 14:40:32;;;;;;;12.80;8.65;;;;;;;;;;4952016;29;20402;-66
2022/03/22 14:42:59;;;;;;;13.02;8.07;;;;;;;;;;4954831;28;20027;-66
2022/03/22 14:45:25;;;;;;;16.15;8.38;;;;;;;;;;4954693;29;20053;-67
2022/03/22 14:47:52;;;;;;;13.68;8.77;;;;;;;;;;4954841;28;20103;-66
2022/03/22 14:50:20;;;;;;;11.73;8.30;;;;;;;;;;4953968;29;20035;-67
2022/03/22 14:55:31;;;;;;;13.85;8.52;;;;;;;;;;4949293;29;20090;-70
2022/03/22 15:00:42;;;;;;;13.23;7.90;;;;;;;;;;4944290;29;20090;-66
2022/03/22 15:03:09;;;;;;;13.77;7.95;;;;;;;;;;4950317;28;20050;-65
2022/03/22 15:05:39;;;;;;;14.90;7.80;;;;;;;;;;4938049;28;20046;-65
2022/03/22 15:08:09;;;;;;;15.05;8.25;;;;;;;;;;4938533;29;20027;-65
2022/03/22 15:10:36;;;;;;;13.23;7.82;;;;;;;;;;4968091;28;20067;-65
2022/03/22 15:13:04;;;;;;;10.55;7.25;;;;;;;;;;4953274;29;20028;-65